This is the latest recevied weather packets stored in our database for station/object LRBV. If no packets are shown the sender has not sent any weather packets the latest 10 day(s).
| Time | Temp. | Humidity | Pressure | Rain* | Wind** | Luminosity | Snow |
|---|---|---|---|---|---|---|---|
| 1777736936 | 6.11° C | 76% | 1022 hPa | - | - | - | - |
| 1777736031 | 6.11° C | 76% | 1022 hPa | - | - | - | - |
| 1777735130 | 6.11° C | 76% | 1023 hPa | - | - | - | - |
| 1777734230 | 6.11° C | 76% | 1023 hPa | - | - | - | - |
| 1777733330 | 7.22° C | 71% | 1022 hPa | - | - | - | - |
| 1777732430 | 7.22° C | 71% | 1022 hPa | - | - | - | - |
| 1777731528 | 7.22° C | 81% | 1022 hPa | - | - | - | - |
| 1777730631 | 7.22° C | 81% | 1022 hPa | - | - | - | - |
| 1777729727 | 7.22° C | 81% | 1022 hPa | - | - | - | - |
| 1777728831 | 7.22° C | 81% | 1022 hPa | - | - | - | - |
| 1777727930 | 7.78° C | 82% | 1023 hPa | - | - | - | - |
| 1777727031 | 7.78° C | 82% | 1023 hPa | - | - | - | - |
| 1777726131 | 6.11° C | 81% | 1023 hPa | - | - | - | - |
| 1777725231 | 6.11° C | 81% | 1023 hPa | - | - | - | - |
| 1777724330 | 7.22° C | 76% | 1023 hPa | - | - | - | - |
| 1777723438 | 7.22° C | 76% | 1023 hPa | - | - | - | - |
| 1777722524 | 7.22° C | 66% | 1023 hPa | - | - | - | - |
| 1777721630 | 7.22° C | 66% | 1023 hPa | - | - | - | - |
| 1777720730 | 8.89° C | 54% | 1022 hPa | - | - | - | - |
| 1777719830 | 8.89° C | 54% | 1022 hPa | - | - | - | - |
| 1777718931 | 10° C | 54% | 1023 hPa | - | - | - | - |
| 1777718031 | 10° C | 54% | 1023 hPa | - | - | - | - |
| 1777717127 | 7.78° C | 66% | 1023 hPa | - | - | - | - |
| 1777716230 | 7.78° C | 66% | 1023 hPa | - | - | - | - |
| 1777715327 | 7.22° C | 71% | 1023 hPa | - | - | - | - |
* Rain since midnight (hover to see other rain measurements)
** Current wind speed in m/s (hover to see current wind gust speed)